Time;durP1;ratioP1;P1;durP2;ratioP2;P2;SDS_P1;SDS_P2;PMS_P1;PMS_P2;Temp;Humidity;BMP_temperature;BMP_pressure;BME280_temperature;BME280_humidity;BME280_pressure;Samples;Min_cycle;Max_cycle;Signal;HPM_P1;HPM_P2
2023/08/20 00:01:08;;;;;;;9.90;3.92;;;19.20;79.80;;;;;;9183039;19;20079;-70
2023/08/20 00:04:17;;;;;;;12.23;3.55;;;19.20;79.80;;;;;;9180354;19;20338;-69
2023/08/20 00:07:27;;;;;;;6.03;3.83;;;19.10;79.80;;;;;;9180400;19;20006;-69
2023/08/20 00:10:35;;;;;;;8.23;3.90;;;19.10;79.80;;;;;;9181701;19;20025;-72
2023/08/20 00:13:46;;;;;;;6.95;3.75;;;19.10;79.90;;;;;;9179905;19;20010;-71
2023/08/20 00:16:54;;;;;;;6.13;3.58;;;19.10;80.00;;;;;;9181955;19;20026;-69
2023/08/20 00:20:00;;;;;;;14.55;4.28;;;19.10;79.90;;;;;;9179950;19;20449;-69
2023/08/20 00:23:08;;;;;;;9.25;4.45;;;19.10;79.90;;;;;;9179602;19;20029;-69
2023/08/20 00:26:15;;;;;;;13.77;4.20;;;19.00;79.90;;;;;;9181167;19;20014;-70
2023/08/20 00:29:25;;;;;;;7.43;4.15;;;19.00;80.00;;;;;;9179965;19;20015;-69
2023/08/20 00:32:31;;;;;;;8.18;3.85;;;19.00;80.10;;;;;;9181226;19;20010;-70
2023/08/20 00:35:38;;;;;;;10.93;4.55;;;19.00;80.70;;;;;;9178722;19;20479;-71
2023/08/20 00:38:44;;;;;;;10.63;4.68;;;19.00;80.10;;;;;;9180123;19;20018;-70
2023/08/20 00:41:52;;;;;;;11.32;4.28;;;18.90;80.10;;;;;;9176322;19;20102;-70
2023/08/20 00:45:00;;;;;;;12.73;4.65;;;18.90;80.10;;;;;;9179518;19;20762;-71
2023/08/20 00:48:11;;;;;;;10.75;3.97;;;18.90;80.20;;;;;;9179529;19;20018;-72
2023/08/20 00:51:16;;;;;;;9.18;4.43;;;18.90;80.20;;;;;;9180290;19;20010;-70
2023/08/20 00:54:26;;;;;;;13.77;4.25;;;18.90;80.20;;;;;;9178030;19;20363;-69
2023/08/20 00:57:36;;;;;;;11.65;4.60;;;18.90;80.30;;;;;;9178591;19;20014;-70
2023/08/20 01:00:49;;;;;;;10.43;4.72;;;18.90;80.30;;;;;;9176720;19;20409;-69
2023/08/20 01:04:01;;;;;;;17.88;4.97;;;18.80;80.30;;;;;;9178126;19;20043;-69
2023/08/20 01:07:17;;;;;;;8.75;4.25;;;18.80;80.30;;;;;;9177814;19;20812;-71
2023/08/20 01:10:29;;;;;;;9.15;4.53;;;18.80;80.40;;;;;;9179589;19;20010;-71
2023/08/20 01:13:36;;;;;;;11.15;3.97;;;18.80;80.40;;;;;;9179743;19;20074;-70
2023/08/20 01:16:44;;;;;;;9.32;4.10;;;18.70;80.30;;;;;;9177753;19;20410;-70
2023/08/20 01:19:55;;;;;;;8.93;4.07;;;18.70;80.40;;;;;;9177024;19;20007;-70
2023/08/20 01:23:40;;;;;;;8.30;3.58;;;18.70;80.40;;;;;;9177622;19;20018;-70
2023/08/20 01:27:10;;;;;;;9.77;4.40;;;18.70;80.60;;;;;;9178194;19;20630;-70
2023/08/20 01:30:24;;;;;;;8.52;3.38;;;18.70;80.60;;;;;;9177409;19;20014;-69
2023/08/20 01:33:30;;;;;;;10.52;4.05;;;18.70;80.60;;;;;;9178394;19;20019;-71
2023/08/20 01:36:40;;;;;;;9.43;4.10;;;18.60;80.50;;;;;;9177229;19;20010;-70
2023/08/20 01:39:48;;;;;;;18.08;4.40;;;18.60;80.60;;;;;;9176577;19;20010;-70
2023/08/20 01:42:56;;;;;;;9.07;4.20;;;18.60;80.60;;;;;;9173508;19;20497;-71
2023/08/20 01:46:05;;;;;;;8.98;4.28;;;18.60;80.60;;;;;;9178384;19;20021;-72
2023/08/20 01:49:13;;;;;;;10.95;5.00;;;18.60;80.70;;;;;;9175063;19;20023;-71
2023/08/20 01:52:18;;;;;;;7.45;4.07;;;18.60;80.70;;;;;;9176359;19;20025;-70
2023/08/20 01:55:26;;;;;;;10.20;4.10;;;18.60;80.80;;;;;;9174383;19;20021;-70
2023/08/20 01:58:36;;;;;;;8.05;4.20;;;18.50;80.90;;;;;;9175311;19;20014;-71
2023/08/20 02:01:49;;;;;;;9.80;4.57;;;18.50;80.90;;;;;;9176993;19;20014;-70
2023/08/20 02:04:55;;;;;;;8.00;4.60;;;18.50;81.10;;;;;;9177112;19;20066;-70
2023/08/20 02:08:03;;;;;;;9.63;4.35;;;18.50;81.20;;;;;;9175123;19;20352;-70
2023/08/20 02:11:11;;;;;;;12.25;5.45;;;18.50;81.20;;;;;;9178102;19;20015;-70
2023/08/20 02:14:19;;;;;;;12.07;4.07;;;18.50;81.30;;;;;;9177398;19;20014;-70
2023/08/20 02:17:27;;;;;;;8.63;4.60;;;18.50;81.30;;;;;;9177353;19;20015;-70
2023/08/20 02:20:37;;;;;;;12.38;4.93;;;18.50;81.40;;;;;;9176605;19;20021;-71
2023/08/20 02:23:43;;;;;;;12.43;4.32;;;18.40;81.30;;;;;;9175876;19;20030;-71
2023/08/20 02:26:51;;;;;;;15.57;4.97;;;18.40;81.40;;;;;;9175824;19;20037;-69
2023/08/20 02:29:57;;;;;;;9.25;4.65;;;18.40;81.40;;;;;;9176137;19;20360;-70
2023/08/20 02:33:09;;;;;;;12.48;5.45;;;18.50;81.50;;;;;;9174852;19;20011;-70
2023/08/20 02:36:15;;;;;;;11.68;4.22;;;18.40;81.50;;;;;;9175332;19;20003;-70
2023/08/20 02:39:24;;;;;;;12.32;5.63;;;18.50;81.60;;;;;;9173884;19;20036;-70
2023/08/20 02:42:30;;;;;;;16.30;6.20;;;18.40;81.60;;;;;;9169898;19;20015;-68
2023/08/20 02:45:43;;;;;;;16.83;5.18;;;18.40;81.70;;;;;;9176339;19;20021;-70
2023/08/20 02:48:52;;;;;;;12.10;5.07;;;18.50;81.90;;;;;;9172837;19;20341;-70
2023/08/20 02:52:00;;;;;;;17.13;5.65;;;18.50;81.90;;;;;;9176008;19;20048;-69
2023/08/20 02:55:07;;;;;;;11.32;5.47;;;18.50;81.80;;;;;;9171387;19;20014;-71
2023/08/20 02:58:18;;;;;;;13.18;5.47;;;18.50;81.90;;;;;;9173909;19;20022;-70
2023/08/20 03:01:25;;;;;;;24.20;5.60;;;18.50;81.90;;;;;;9173733;19;20018;-69
2023/08/20 03:04:38;;;;;;;10.93;5.38;;;18.50;81.90;;;;;;9174519;19;20048;-70
2023/08/20 03:07:45;;;;;;;12.82;4.85;;;18.50;81.90;;;;;;9179628;19;20007;-70
2023/08/20 03:10:53;;;;;;;12.73;5.70;;;18.50;82.00;;;;;;9183079;19;20021;-70
2023/08/20 03:13:59;;;;;;;14.57;5.60;;;18.50;81.90;;;;;;9183452;19;20030;-71
2023/08/20 03:17:11;;;;;;;11.50;5.90;;;18.50;81.80;;;;;;9179143;19;20721;-72
2023/08/20 03:20:21;;;;;;;14.90;4.78;;;18.50;81.90;;;;;;9182951;19;20464;-70
2023/08/20 03:23:29;;;;;;;16.85;6.05;;;18.50;81.80;;;;;;9182100;19;20014;-70
2023/08/20 03:26:35;;;;;;;11.43;5.47;;;18.50;81.70;;;;;;9182099;19;20048;-71
2023/08/20 03:29:42;;;;;;;11.43;4.93;;;18.50;81.70;;;;;;9182347;19;20018;-71
2023/08/20 03:32:48;;;;;;;11.35;5.00;;;18.50;81.70;;;;;;9183295;19;20011;-70
2023/08/20 03:35:58;;;;;;;10.15;5.20;;;18.40;81.70;;;;;;9180271;19;20025;-72
2023/08/20 03:39:05;;;;;;;9.00;5.40;;;18.40;81.70;;;;;;9181976;19;20472;-70
2023/08/20 03:42:13;;;;;;;13.57;5.72;;;18.40;81.80;;;;;;9178480;19;20015;-70
2023/08/20 03:45:18;;;;;;;15.15;5.72;;;18.40;81.90;;;;;;9180828;19;20064;-70
2023/08/20 03:48:26;;;;;;;12.70;5.10;;;18.40;81.90;;;;;;9181459;19;20018;-70
2023/08/20 03:51:34;;;;;;;14.63;5.15;;;18.40;82.40;;;;;;9182582;19;20019;-71
2023/08/20 03:54:44;;;;;;;11.23;4.93;;;18.40;81.90;;;;;;9182448;19;20010;-71
2023/08/20 03:57:49;;;;;;;13.00;5.47;;;18.30;81.90;;;;;;9177881;19;20014;-70
2023/08/20 04:00:56;;;;;;;10.25;4.72;;;18.30;81.90;;;;;;9182788;19;20015;-70
2023/08/20 04:04:02;;;;;;;13.90;6.32;;;18.30;81.90;;;;;;9182379;19;20007;-71
2023/08/20 04:07:13;;;;;;;12.93;5.43;;;18.30;81.90;;;;;;9181561;19;20038;-70
2023/08/20 04:10:18;;;;;;;9.02;5.10;;;18.20;81.90;;;;;;9180192;19;20495;-69
2023/08/20 04:13:26;;;;;;;12.93;5.78;;;18.20;81.90;;;;;;9180237;19;20597;-71
2023/08/20 04:16:32;;;;;;;13.00;5.78;;;18.20;81.90;;;;;;9178504;19;20014;-69
2023/08/20 04:19:40;;;;;;;12.13;6.35;;;18.20;81.90;;;;;;9178958;19;20491;-72
2023/08/20 04:22:48;;;;;;;13.85;5.10;;;18.20;81.90;;;;;;9179621;19;20014;-68
2023/08/20 04:25:56;;;;;;;12.52;5.22;;;18.20;82.00;;;;;;9179068;19;20384;-70
2023/08/20 04:29:02;;;;;;;14.93;5.63;;;18.10;81.90;;;;;;9179409;19;20018;-71
2023/08/20 04:32:10;;;;;;;14.85;5.47;;;18.10;82.00;;;;;;9179776;19;20022;-70
2023/08/20 04:35:16;;;;;;;10.32;5.95;;;18.10;82.00;;;;;;9181439;19;20018;-69
2023/08/20 04:38:26;;;;;;;18.77;5.75;;;18.10;82.00;;;;;;9176651;19;20360;-68
2023/08/20 04:41:31;;;;;;;13.38;5.85;;;18.10;82.10;;;;;;9174289;19;20022;-69
2023/08/20 04:44:38;;;;;;;10.13;4.78;;;18.00;82.60;;;;;;9178874;19;20015;-70
2023/08/20 04:47:45;;;;;;;14.57;6.50;;;18.00;82.00;;;;;;9178447;19;20014;-70
2023/08/20 04:50:53;;;;;;;14.15;5.57;;;18.00;82.10;;;;;;9178758;19;20018;-69
2023/08/20 04:54:01;;;;;;;14.27;5.93;;;18.00;82.20;;;;;;9179591;19;20011;-70
2023/08/20 04:57:10;;;;;;;12.82;5.65;;;18.00;82.30;;;;;;9179425;19;20018;-71
2023/08/20 05:00:18;;;;;;;16.83;5.93;;;18.00;82.20;;;;;;9178174;19;20014;-71
2023/08/20 05:03:32;;;;;;;9.73;4.72;;;17.90;82.20;;;;;;9179460;19;20476;-73
2023/08/20 05:06:39;;;;;;;13.98;5.97;;;18.00;82.20;;;;;;9179474;19;20370;-69
2023/08/20 05:09:49;;;;;;;16.17;5.70;;;18.00;82.20;;;;;;9178291;19;20014;-68
2023/08/20 05:12:54;;;;;;;16.23;5.78;;;18.00;82.40;;;;;;9180675;19;20011;-69
2023/08/20 05:16:02;;;;;;;15.60;6.10;;;18.00;82.30;;;;;;9178035;19;20479;-69
2023/08/20 05:19:07;;;;;;;16.05;6.53;;;18.00;82.40;;;;;;9177529;19;20010;-71
2023/08/20 05:22:14;;;;;;;10.55;6.38;;;18.00;82.40;;;;;;9177510;19;20484;-70
2023/08/20 05:25:22;;;;;;;14.00;5.40;;;18.00;82.50;;;;;;9177529;19;20011;-69
2023/08/20 05:28:31;;;;;;;12.00;5.40;;;18.00;82.50;;;;;;9177136;19;20082;-74
2023/08/20 05:31:37;;;;;;;13.52;6.60;;;18.00;82.60;;;;;;9177635;19;20014;-69
2023/08/20 05:34:47;;;;;;;9.88;5.55;;;18.00;82.60;;;;;;9178830;19;20476;-70
2023/08/20 05:37:53;;;;;;;10.63;5.22;;;18.00;82.70;;;;;;9178215;19;20018;-71
2023/08/20 05:41:03;;;;;;;15.55;5.53;;;18.00;82.70;;;;;;9170647;19;20019;-71
2023/08/20 05:44:08;;;;;;;18.90;7.70;;;18.00;82.80;;;;;;9175789;19;20090;-70
2023/08/20 05:47:16;;;;;;;13.75;7.38;;;18.00;82.90;;;;;;9176462;19;20030;-70
2023/08/20 05:50:21;;;;;;;18.23;8.35;;;18.10;83.10;;;;;;9175881;19;20468;-69
2023/08/20 05:53:30;;;;;;;16.98;8.55;;;18.20;83.20;;;;;;9176211;19;20014;-70
2023/08/20 05:56:38;;;;;;;19.95;9.50;;;18.30;83.40;;;;;;9176630;19;20023;-69
2023/08/20 05:59:45;;;;;;;18.80;8.95;;;18.40;83.60;;;;;;9176285;19;20018;-70
2023/08/20 06:02:51;;;;;;;14.95;8.52;;;18.50;83.50;;;;;;9175808;19;20015;-70
2023/08/20 06:06:00;;;;;;;16.35;8.32;;;18.70;83.70;;;;;;9175931;19;20025;-69
2023/08/20 06:09:10;;;;;;;22.00;8.15;;;18.80;83.80;;;;;;9178027;19;20020;-71
2023/08/20 06:12:20;;;;;;;20.27;9.00;;;19.00;83.70;;;;;;9177058;19;20014;-70
2023/08/20 06:15:25;;;;;;;17.48;7.47;;;19.20;83.80;;;;;;9176493;19;20017;-70
2023/08/20 06:18:33;;;;;;;16.88;8.90;;;19.40;83.60;;;;;;9175393;19;20026;-72
2023/08/20 06:21:43;;;;;;;18.58;8.10;;;19.60;83.50;;;;;;9174773;19;20021;-69
2023/08/20 06:24:53;;;;;;;20.30;8.18;;;19.70;83.40;;;;;;9177374;19;20018;-72
2023/08/20 06:28:04;;;;;;;16.30;7.68;;;19.90;83.30;;;;;;9177928;19;20018;-70
2023/08/20 06:31:12;;;;;;;20.80;7.72;;;20.10;83.30;;;;;;9177783;19;20022;-72
2023/08/20 06:34:17;;;;;;;16.58;7.70;;;20.20;83.10;;;;;;9177401;19;20598;-72
2023/08/20 06:37:25;;;;;;;21.35;8.35;;;20.40;83.20;;;;;;9175815;19;20041;-71
2023/08/20 06:40:36;;;;;;;20.95;7.97;;;20.60;83.10;;;;;;9173752;19;20018;-72
2023/08/20 06:43:46;;;;;;;15.80;8.00;;;20.90;83.10;;;;;;9178139;19;20018;-72
2023/08/20 06:46:52;;;;;;;23.58;8.57;;;21.10;83.00;;;;;;9174327;19;20782;-71
2023/08/20 06:49:59;;;;;;;16.23;7.70;;;21.40;82.80;;;;;;9171945;19;20046;-71
2023/08/20 06:53:05;;;;;;;20.13;8.02;;;21.60;82.60;;;;;;9174031;19;20017;-71
2023/08/20 06:56:13;;;;;;;17.77;8.05;;;21.80;82.40;;;;;;9175784;19;20054;-71
2023/08/20 06:59:22;;;;;;;15.60;7.65;;;22.10;82.30;;;;;;9172230;19;20827;-72
2023/08/20 07:02:30;;;;;;;19.40;7.63;;;22.30;82.10;;;;;;9172806;19;20018;-72
2023/08/20 07:05:35;;;;;;;12.25;7.57;;;22.50;81.90;;;;;;9174645;19;20022;-73
2023/08/20 07:08:43;;;;;;;18.48;8.00;;;22.70;81.70;;;;;;9175174;19;20025;-72
2023/08/20 07:11:48;;;;;;;20.52;7.70;;;22.90;81.60;;;;;;9173472;19;20007;-72
2023/08/20 07:14:58;;;;;;;17.33;8.35;;;23.10;81.20;;;;;;9173135;19;20021;-70
2023/08/20 07:18:04;;;;;;;16.45;7.65;;;23.40;81.00;;;;;;9174091;19;20014;-71
2023/08/20 07:21:11;;;;;;;20.50;6.78;;;23.60;80.80;;;;;;9176110;19;20010;-72
2023/08/20 07:24:16;;;;;;;18.98;6.88;;;23.90;80.50;;;;;;9173248;19;20514;-72
2023/08/20 07:27:24;;;;;;;12.02;5.50;;;24.00;80.10;;;;;;9174259;19;20454;-72
2023/08/20 07:30:31;;;;;;;23.60;5.68;;;24.30;79.60;;;;;;9174664;19;20025;-71
2023/08/20 07:33:39;;;;;;;15.40;5.20;;;24.40;79.20;;;;;;9173198;19;20028;-72
2023/08/20 07:36:44;;;;;;;11.15;5.32;;;24.60;78.90;;;;;;9174125;19;20070;-73
2023/08/20 07:39:51;;;;;;;14.32;4.95;;;24.80;78.60;;;;;;9171900;19;20015;-72
2023/08/20 07:42:57;;;;;;;17.58;4.95;;;25.00;78.30;;;;;;9170146;19;20572;-72
2023/08/20 07:46:09;;;;;;;14.48;3.72;;;25.20;77.90;;;;;;9173850;19;20023;-70
2023/08/20 07:49:14;;;;;;;16.05;5.00;;;25.40;77.50;;;;;;9171361;19;20017;-72
2023/08/20 07:52:24;;;;;;;13.00;4.28;;;25.50;77.40;;;;;;9173210;19;20368;-72
2023/08/20 07:55:31;;;;;;;9.27;4.00;;;25.70;76.90;;;;;;9181104;19;20015;-72
2023/08/20 07:58:38;;;;;;;13.00;5.05;;;25.80;76.60;;;;;;9181714;19;20026;-72
2023/08/20 08:01:46;;;;;;;12.88;4.28;;;26.00;76.30;;;;;;9178158;19;20608;-73
2023/08/20 08:04:54;;;;;;;9.77;3.25;;;26.10;75.80;;;;;;9160457;19;20014;-73
2023/08/20 08:07:59;;;;;;;10.40;3.05;;;26.20;75.60;;;;;;9167735;19;20021;-72
2023/08/20 08:11:07;;;;;;;11.75;2.80;;;26.30;75.30;;;;;;9166667;19;20383;-73
2023/08/20 08:14:18;;;;;;;14.35;2.85;;;26.40;75.00;;;;;;9166003;19;20357;-73
2023/08/20 08:17:29;;;;;;;11.00;2.63;;;26.50;74.70;;;;;;9167381;19;20018;-73
2023/08/20 08:20:37;;;;;;;10.48;2.00;;;26.60;74.20;;;;;;9163957;19;20022;-74
2023/08/20 08:23:47;;;;;;;8.55;1.95;;;26.60;73.90;;;;;;9165452;19;20019;-72
2023/08/20 08:26:52;;;;;;;7.13;1.90;;;26.70;73.60;;;;;;9165482;19;20018;-73
2023/08/20 08:30:00;;;;;;;5.05;1.35;;;26.80;73.30;;;;;;9165935;19;20409;-73
2023/08/20 08:33:08;;;;;;;12.13;1.70;;;26.80;73.00;;;;;;9165799;19;20040;-73
2023/08/20 08:36:16;;;;;;;33.42;6.63;;;27.00;72.70;;;;;;9165356;19;20014;-70
2023/08/20 08:39:22;;;;;;;24.13;3.55;;;27.00;72.50;;;;;;9165730;19;20992;-72
2023/08/20 08:42:29;;;;;;;12.75;2.00;;;27.10;72.20;;;;;;9160040;19;20486;-73
2023/08/20 08:45:35;;;;;;;9.75;2.30;;;27.20;72.00;;;;;;9165862;19;20703;-73
2023/08/20 08:48:47;;;;;;;8.95;2.05;;;27.30;71.70;;;;;;9164551;19;20017;-73
2023/08/20 08:51:54;;;;;;;8.80;2.05;;;27.40;71.40;;;;;;9166810;19;20014;-63
2023/08/20 08:55:07;;;;;;;5.72;2.13;;;27.50;71.50;;;;;;9166081;19;20015;-61
2023/08/20 08:58:14;;;;;;;7.43;1.67;;;27.60;71.40;;;;;;9165465;19;20006;-74
2023/08/20 09:01:22;;;;;;;9.75;1.63;;;27.60;70.90;;;;;;9163710;19;20010;-75
2023/08/20 09:04:30;;;;;;;5.53;1.67;;;27.70;70.70;;;;;;9164319;19;20374;-66
2023/08/20 09:07:37;;;;;;;5.03;1.55;;;27.80;70.40;;;;;;9165659;19;20030;-67
2023/08/20 09:10:43;;;;;;;11.57;2.08;;;27.80;70.30;;;;;;9163201;19;20026;-67
2023/08/20 09:13:50;;;;;;;6.60;1.67;;;27.90;70.20;;;;;;9163638;19;20014;-68
2023/08/20 09:17:01;;;;;;;13.70;2.63;;;28.00;70.00;;;;;;9162076;19;20014;-67
2023/08/20 09:20:12;;;;;;;8.68;2.05;;;28.00;69.50;;;;;;9163381;19;20066;-70
2023/08/20 09:23:18;;;;;;;6.88;1.88;;;28.10;69.50;;;;;;9164500;19;20053;-72
2023/08/20 09:26:26;;;;;;;8.95;1.70;;;28.20;69.40;;;;;;9168810;19;20015;-71
2023/08/20 09:29:34;;;;;;;8.05;3.22;;;28.30;69.30;;;;;;9169955;19;20022;-70
2023/08/20 09:32:42;;;;;;;8.07;1.85;;;28.40;68.80;;;;;;9170631;19;20029;-70
2023/08/20 09:35:54;;;;;;;7.32;2.08;;;28.50;68.80;;;;;;9170661;19;20025;-70
2023/08/20 09:39:02;;;;;;;7.50;2.47;;;28.60;68.40;;;;;;9167983;19;20022;-71
2023/08/20 09:42:08;;;;;;;8.15;1.85;;;28.60;68.50;;;;;;9164549;19;20117;-69
2023/08/20 09:45:16;;;;;;;14.18;2.78;;;28.70;68.30;;;;;;9166749;19;20103;-70
2023/08/20 09:48:22;;;;;;;10.85;2.55;;;28.90;68.20;;;;;;9171858;19;20017;-72
2023/08/20 09:51:35;;;;;;;8.80;2.88;;;28.90;67.80;;;;;;9171949;19;20025;-68
2023/08/20 09:54:52;;;;;;;9.27;2.13;;;29.00;67.50;;;;;;9174087;19;20082;-70
2023/08/20 09:58:00;;;;;;;8.80;1.85;;;29.00;67.30;;;;;;9169686;19;20022;-71
2023/08/20 10:01:06;;;;;;;13.10;2.58;;;29.10;67.50;;;;;;9167475;19;20022;-71
2023/08/20 10:04:13;;;;;;;9.73;2.53;;;29.10;67.30;;;;;;9168737;19;20011;-72
2023/08/20 10:07:24;;;;;;;10.13;1.95;;;29.20;67.20;;;;;;9171433;19;20014;-72
2023/08/20 10:10:32;;;;;;;8.38;2.33;;;29.20;66.90;;;;;;9178134;19;20018;-73
2023/08/20 10:13:39;;;;;;;8.13;1.88;;;29.30;66.90;;;;;;9177073;19;20014;-72
2023/08/20 10:16:48;;;;;;;8.10;1.85;;;29.40;66.70;;;;;;9174247;19;20027;-73
2023/08/20 10:19:54;;;;;;;5.45;1.60;;;29.40;66.40;;;;;;9176505;19;20078;-70
2023/08/20 10:23:06;;;;;;;7.68;1.45;;;29.50;66.00;;;;;;9174505;19;20018;-72
2023/08/20 10:26:13;;;;;;;5.72;1.30;;;29.60;65.50;;;;;;9177957;19;20021;-71
2023/08/20 10:29:42;;;;;;;4.55;1.08;;;29.60;65.30;;;;;;9177177;19;20022;-71
2023/08/20 10:32:50;;;;;;;5.50;1.58;;;29.70;64.70;;;;;;9176708;19;20018;-71
2023/08/20 10:35:57;;;;;;;9.73;1.30;;;29.70;65.10;;;;;;9174740;19;20025;-69
2023/08/20 10:39:08;;;;;;;5.07;1.73;;;29.80;65.10;;;;;;9176257;19;20041;-68
2023/08/20 10:42:29;;;;;;;3.58;1.17;;;29.90;64.60;;;;;;9172911;19;20364;-72
2023/08/20 10:45:46;;;;;;;5.18;1.27;;;30.00;63.90;;;;;;9176259;19;20014;-68
2023/08/20 10:48:55;;;;;;;5.20;1.10;;;30.10;63.50;;;;;;9174999;19;20018;-69
2023/08/20 10:52:05;;;;;;;5.07;1.17;;;30.10;63.60;;;;;;9176239;19;20036;-70
2023/08/20 10:55:16;;;;;;;5.15;1.08;;;30.20;63.00;;;;;;9174927;19;20028;-70
2023/08/20 10:58:26;;;;;;;7.05;1.50;;;30.30;62.70;;;;;;9176859;19;20074;-69
2023/08/20 11:01:34;;;;;;;7.90;1.17;;;30.40;62.30;;;;;;9172712;19;20022;-71
2023/08/20 11:04:40;;;;;;;5.57;1.00;;;30.50;62.50;;;;;;9174285;19;20102;-70
2023/08/20 11:07:49;;;;;;;2.75;0.85;;;30.50;62.00;;;;;;9176256;19;20014;-68
2023/08/20 11:10:57;;;;;;;1.70;1.00;;;30.60;61.70;;;;;;9176169;19;20025;-71
2023/08/20 11:14:09;;;;;;;6.78;1.00;;;30.60;61.40;;;;;;9174112;19;20018;-71
2023/08/20 11:17:15;;;;;;;5.68;1.10;;;30.70;61.30;;;;;;9176468;19;20465;-71
2023/08/20 11:20:26;;;;;;;2.05;0.90;;;30.80;61.40;;;;;;9171747;19;20025;-73
2023/08/20 11:23:31;;;;;;;3.53;1.00;;;30.90;61.10;;;;;;9174950;19;20011;-74
2023/08/20 11:26:43;;;;;;;2.05;0.63;;;30.90;60.70;;;;;;9174707;19;20026;-70
2023/08/20 11:29:52;;;;;;;3.63;1.10;;;31.00;60.20;;;;;;9182732;19;20018;-71
2023/08/20 11:33:01;;;;;;;1.60;0.57;;;31.10;60.20;;;;;;9182993;19;20018;-71
2023/08/20 11:36:08;;;;;;;6.25;1.00;;;31.20;59.90;;;;;;9183216;19;20044;-71
2023/08/20 11:39:15;;;;;;;1.45;0.88;;;31.20;59.70;;;;;;9184052;19;20018;-69
2023/08/20 11:42:23;;;;;;;6.13;0.85;;;31.30;59.60;;;;;;9176967;19;20018;-70
2023/08/20 11:45:32;;;;;;;3.50;0.90;;;31.40;59.20;;;;;;9184355;19;20483;-71
2023/08/20 11:48:37;;;;;;;2.70;0.70;;;31.50;59.10;;;;;;9181016;19;20048;-72
2023/08/20 11:51:50;;;;;;;2.47;0.70;;;31.60;58.70;;;;;;9183561;19;20025;-73
2023/08/20 11:54:55;;;;;;;1.75;0.50;;;31.60;58.40;;;;;;9181933;19;20010;-73
2023/08/20 11:58:07;;;;;;;1.63;0.63;;;31.60;58.10;;;;;;9181873;19;20022;-71
2023/08/20 12:01:12;;;;;;;3.53;0.90;;;31.70;58.50;;;;;;9179981;19;20048;-71
2023/08/20 12:04:20;;;;;;;4.35;0.82;;;31.70;57.80;;;;;;9183838;19;20838;-70
2023/08/20 12:07:28;;;;;;;3.90;0.85;;;31.80;57.70;;;;;;9181539;19;20713;-73
2023/08/20 12:10:36;;;;;;;2.50;0.88;;;31.80;57.30;;;;;;9183312;19;20018;-74
2023/08/20 12:13:44;;;;;;;3.38;0.65;;;31.90;57.40;;;;;;9183082;19;20094;-73
2023/08/20 12:16:53;;;;;;;1.70;0.40;;;31.90;56.80;;;;;;9178728;19;20018;-73
2023/08/20 12:20:05;;;;;;;3.30;0.63;;;31.90;56.70;;;;;;9183080;19;20028;-71
2023/08/20 12:23:19;;;;;;;;;;;31.90;56.60;;;;;;9181600;19;20025;-71
2023/08/20 12:26:29;;;;;;;1.40;0.50;;;31.90;57.50;;;;;;9181226;19;19907;-70
2023/08/20 12:29:41;;;;;;;4.30;0.65;;;31.90;57.20;;;;;;9183060;19;20019;-73
2023/08/20 12:32:46;;;;;;;2.47;0.75;;;31.90;56.50;;;;;;9182268;19;20035;-71
2023/08/20 12:35:57;;;;;;;2.53;0.80;;;31.90;56.30;;;;;;9182169;19;20018;-71
2023/08/20 12:39:08;;;;;;;4.00;0.73;;;31.90;56.30;;;;;;9178331;19;20015;-73
2023/08/20 12:42:15;;;;;;;2.45;0.95;;;31.90;56.10;;;;;;9176342;19;20018;-72
2023/08/20 12:45:27;;;;;;;1.80;0.55;;;31.90;56.10;;;;;;9181059;19;20022;-72
2023/08/20 12:48:35;;;;;;;3.42;0.63;;;32.00;55.70;;;;;;9178491;19;20022;-72
2023/08/20 12:51:44;;;;;;;3.10;0.60;;;32.00;55.70;;;;;;9180118;19;20019;-73
2023/08/20 12:54:52;;;;;;;3.13;0.70;;;32.00;55.40;;;;;;9179725;19;20022;-73
2023/08/20 12:58:02;;;;;;;1.67;0.47;;;32.00;55.20;;;;;;9179546;19;20018;-71
2023/08/20 13:01:12;;;;;;;2.47;0.80;;;32.00;55.00;;;;;;9180323;19;20025;-71
2023/08/20 13:04:18;;;;;;;2.38;0.55;;;32.10;54.70;;;;;;9181101;19;20089;-75
2023/08/20 13:07:27;;;;;;;3.80;1.02;;;32.10;54.80;;;;;;9181744;19;20082;-72
2023/08/20 13:10:33;;;;;;;4.45;1.08;;;32.10;54.60;;;;;;9181428;19;20010;-72
2023/08/20 13:13:41;;;;;;;2.72;0.70;;;32.10;54.40;;;;;;9178009;19;20019;-72
2023/08/20 13:16:50;;;;;;;3.70;0.80;;;32.10;54.30;;;;;;9180624;19;20021;-73
2023/08/20 13:19:57;;;;;;;3.85;0.73;;;32.10;53.90;;;;;;9179627;19;20010;-71
2023/08/20 13:23:04;;;;;;;4.13;0.98;;;32.10;53.90;;;;;;9177837;19;20025;-67
2023/08/20 13:26:12;;;;;;;4.13;0.73;;;32.00;53.70;;;;;;9180031;19;20368;-71
2023/08/20 13:29:17;;;;;;;4.30;1.05;;;32.00;53.60;;;;;;9178756;19;20537;-69
2023/08/20 13:32:27;;;;;;;5.25;0.98;;;32.00;53.60;;;;;;9178176;19;20029;-71
2023/08/20 13:35:32;;;;;;;4.00;0.77;;;32.00;53.50;;;;;;9178108;19;20011;-73
2023/08/20 13:38:40;;;;;;;2.78;0.80;;;31.90;53.40;;;;;;9178280;19;20015;-73
2023/08/20 13:41:45;;;;;;;4.72;1.08;;;31.90;53.40;;;;;;9172237;19;20276;-71
2023/08/20 13:44:53;;;;;;;5.03;0.98;;;31.90;53.40;;;;;;9179363;19;20026;-70
2023/08/20 13:48:01;;;;;;;7.38;0.70;;;31.90;53.30;;;;;;9176198;19;20436;-71
2023/08/20 13:51:08;;;;;;;3.78;1.02;;;31.90;53.20;;;;;;9174689;19;20356;-71
2023/08/20 13:54:13;;;;;;;3.60;0.80;;;31.80;53.10;;;;;;9177978;19;20033;-73
2023/08/20 13:57:21;;;;;;;2.53;0.90;;;31.80;53.10;;;;;;9177597;19;20030;-74
2023/08/20 14:00:27;;;;;;;7.45;1.00;;;31.70;53.00;;;;;;9177578;19;20353;-72
2023/08/20 14:03:37;;;;;;;2.65;0.70;;;31.70;53.00;;;;;;9174543;19;20018;-71
2023/08/20 14:06:43;;;;;;;3.10;1.13;;;31.60;52.90;;;;;;9178330;19;20463;-73
2023/08/20 14:09:51;;;;;;;5.55;1.00;;;31.50;52.80;;;;;;9174478;19;20014;-72
2023/08/20 14:12:56;;;;;;;4.53;0.85;;;31.50;52.80;;;;;;9178647;19;20015;-71
2023/08/20 14:16:04;;;;;;;3.17;0.80;;;31.40;52.70;;;;;;9178100;19;20014;-71
2023/08/20 14:19:12;;;;;;;6.82;1.05;;;31.30;52.70;;;;;;9176151;19;20365;-68
2023/08/20 14:22:20;;;;;;;4.90;1.15;;;31.20;52.70;;;;;;9176363;19;20037;-71
2023/08/20 14:25:26;;;;;;;3.03;0.80;;;31.20;52.80;;;;;;9178373;19;20514;-73
2023/08/20 14:28:36;;;;;;;5.45;1.20;;;31.10;52.80;;;;;;9176083;19;20022;-72
2023/08/20 14:31:44;;;;;;;2.35;0.80;;;31.00;52.80;;;;;;9177502;19;20010;-70
2023/08/20 14:34:54;;;;;;;3.65;0.75;;;30.80;52.70;;;;;;9177131;19;20030;-71
2023/08/20 14:38:00;;;;;;;4.75;0.80;;;30.70;52.70;;;;;;9176879;19;20029;-74
2023/08/20 14:41:07;;;;;;;6.85;1.30;;;30.60;52.90;;;;;;9172071;19;20022;-70
2023/08/20 14:44:14;;;;;;;6.57;1.33;;;30.40;52.80;;;;;;9174859;19;20381;-72
2023/08/20 14:47:21;;;;;;;2.88;0.90;;;30.30;52.90;;;;;;9176209;19;20015;-70
2023/08/20 14:50:29;;;;;;;5.78;1.17;;;30.20;52.90;;;;;;9176456;19;20510;-70
2023/08/20 14:53:39;;;;;;;3.45;0.98;;;30.10;53.00;;;;;;9175030;19;20018;-73
2023/08/20 14:56:47;;;;;;;4.80;0.88;;;30.10;53.20;;;;;;9174722;19;20430;-71
2023/08/20 14:59:58;;;;;;;4.82;0.90;;;30.00;53.00;;;;;;9176712;19;20021;-74
2023/08/20 15:03:06;;;;;;;4.72;1.17;;;30.00;53.00;;;;;;9177868;19;20017;-76
2023/08/20 15:06:21;;;;;;;4.28;1.30;;;29.90;53.00;;;;;;9181714;19;20043;-70
2023/08/20 15:09:26;;;;;;;3.42;1.42;;;29.90;53.00;;;;;;9185518;19;20054;-74
2023/08/20 15:12:36;;;;;;;4.18;2.08;;;29.80;53.00;;;;;;9183804;19;20019;-73
2023/08/20 15:15:44;;;;;;;5.70;1.20;;;29.70;53.00;;;;;;9186941;19;20021;-74
2023/08/20 15:18:54;;;;;;;4.78;1.98;;;29.70;53.00;;;;;;9185301;19;20014;-72
2023/08/20 15:22:03;;;;;;;8.48;1.48;;;29.70;53.30;;;;;;9184253;19;20022;-71
2023/08/20 15:25:11;;;;;;;5.07;1.33;;;29.60;53.20;;;;;;9184607;19;20023;-71
2023/08/20 15:28:16;;;;;;;4.38;1.23;;;29.50;53.20;;;;;;9183439;19;20040;-69
2023/08/20 15:31:24;;;;;;;2.97;1.23;;;29.50;53.30;;;;;;9182905;19;20364;-72
2023/08/20 15:34:29;;;;;;;6.05;0.88;;;29.40;53.40;;;;;;9184504;19;20022;-70
2023/08/20 15:37:39;;;;;;;7.50;1.65;;;29.30;53.40;;;;;;9184081;19;20014;-70
2023/08/20 15:40:45;;;;;;;5.97;1.20;;;29.30;53.40;;;;;;9179218;19;20039;-70
2023/08/20 15:43:52;;;;;;;3.50;1.25;;;29.30;53.50;;;;;;9180611;19;20019;-71
2023/08/20 15:46:57;;;;;;;4.43;1.60;;;29.20;53.50;;;;;;9182015;19;20011;-70
2023/08/20 15:50:09;;;;;;;8.77;1.42;;;29.20;53.60;;;;;;9182690;19;20052;-70
2023/08/20 15:53:17;;;;;;;6.70;1.50;;;29.10;53.50;;;;;;9182197;19;20022;-70
2023/08/20 15:56:28;;;;;;;5.75;0.90;;;29.10;53.50;;;;;;9182725;19;20018;-68
2023/08/20 15:59:36;;;;;;;7.38;1.55;;;29.10;53.60;;;;;;9182193;19;20010;-70
2023/08/20 16:02:45;;;;;;;7.68;1.17;;;29.10;53.60;;;;;;9179314;19;20014;-71
2023/08/20 16:05:50;;;;;;;5.60;1.20;;;29.00;53.60;;;;;;9161504;19;20014;-69
2023/08/20 16:09:00;;;;;;;8.00;1.13;;;29.00;53.50;;;;;;9166765;19;20010;-73
2023/08/20 16:12:06;;;;;;;4.07;1.27;;;29.00;53.50;;;;;;9166412;19;20512;-68
2023/08/20 16:15:16;;;;;;;6.32;1.73;;;28.90;53.50;;;;;;9163155;19;20018;-69